createdAt,value
2022-11-28T00:00:38.543Z,-1.42
2022-11-28T00:01:47.575Z,-1.40
2022-11-28T00:02:52.595Z,-1.45
2022-11-28T00:04:07.207Z,-1.50
2022-11-28T00:05:16.761Z,-1.35
2022-11-28T00:06:30.469Z,-1.35
2022-11-28T00:07:38.086Z,-1.45
2022-11-28T00:08:44.203Z,-1.37
2022-11-28T00:10:00.802Z,-1.33
2022-11-28T00:11:13.510Z,-1.28
2022-11-28T00:12:20.869Z,-1.19
2022-11-28T00:13:28.389Z,-1.23
2022-11-28T00:14:47.150Z,-1.32
2022-11-28T00:16:14.385Z,-1.27
2022-11-28T00:17:28.197Z,-1.34
2022-11-28T00:18:42.875Z,-1.32
2022-11-28T00:19:49.868Z,-1.39
2022-11-28T00:21:09.586Z,-1.31
2022-11-28T00:22:29.316Z,-1.39
2022-11-28T00:23:48.858Z,-1.37
2022-11-28T00:24:53.730Z,-1.47
2022-11-28T00:26:02.786Z,-1.45
2022-11-28T00:27:09.481Z,-1.48
2022-11-28T00:28:12.947Z,-1.48
2022-11-28T00:29:18.383Z,-1.49
2022-11-28T00:30:25.623Z,-1.33
2022-11-28T00:31:44.270Z,-1.34
2022-11-28T00:32:50.714Z,-1.41
2022-11-28T00:33:58.209Z,-1.30
2022-11-28T00:35:06.833Z,-1.38
2022-11-28T00:36:19.667Z,-1.35
2022-11-28T00:37:32.638Z,-1.35
2022-11-28T00:38:39.185Z,-1.40
2022-11-28T00:39:43.728Z,-1.47
2022-11-28T00:41:00.440Z,-1.55
2022-11-28T00:42:07.398Z,-1.57
2022-11-28T00:43:16.429Z,-1.55
2022-11-28T00:44:27.818Z,-1.55
2022-11-28T00:45:32.267Z,-1.56
2022-11-28T00:46:35.753Z,-1.66
2022-11-28T00:47:41.759Z,-1.65
2022-11-28T00:48:56.911Z,-1.60
2022-11-28T00:50:11.512Z,-1.70
2022-11-28T00:51:27.469Z,-1.79
2022-11-28T00:52:42.892Z,-1.85
2022-11-28T00:53:51.480Z,-1.82
2022-11-28T00:55:04.230Z,-1.71
2022-11-28T00:56:31.491Z,-1.67
2022-11-28T00:57:52.264Z,-1.62
2022-11-28T00:59:05.079Z,-1.76
2022-11-28T01:00:14.870Z,-1.65
2022-11-28T01:01:40.534Z,-1.74
2022-11-28T01:02:45.553Z,-1.76
2022-11-28T01:04:01.585Z,-1.69
2022-11-28T01:05:37.645Z,-1.68
2022-11-28T01:06:58.843Z,-1.65
2022-11-28T01:08:13.340Z,-1.73
2022-11-28T01:10:57.456Z,-1.78
2022-11-28T01:12:15.354Z,-1.74
2022-11-28T01:13:22.370Z,-1.79
2022-11-28T01:14:39.966Z,-1.87
2022-11-28T01:15:47.029Z,-1.88
2022-11-28T01:17:15.082Z,-1.85
2022-11-28T01:18:32.433Z,-1.71
2022-11-28T01:19:46.162Z,-1.70
2022-11-28T01:20:54.186Z,-1.72
2022-11-28T01:21:58.987Z,-1.61
2022-11-28T01:23:10.241Z,-1.72
2022-11-28T01:24:25.767Z,-1.81
2022-11-28T01:25:31.781Z,-1.69
2022-11-28T01:26:45.354Z,-1.80
2022-11-28T01:27:57.429Z,-1.77
2022-11-28T01:29:13.888Z,-1.82
2022-11-28T01:30:21.020Z,-1.82
2022-11-28T01:31:31.586Z,-1.80
2022-11-28T01:32:36.922Z,-1.70
2022-11-28T01:33:42.925Z,-1.84
2022-11-28T01:34:53.300Z,-1.78
2022-11-28T01:36:04.088Z,-1.76
2022-11-28T01:37:13.596Z,-1.74
2022-11-28T01:38:16.485Z,-1.67
2022-11-28T01:39:22.322Z,-1.78
2022-11-28T01:40:31.810Z,-1.79
2022-11-28T01:41:36.171Z,-1.89
2022-11-28T01:42:47.766Z,-1.84
2022-11-28T01:44:31.595Z,-1.97
2022-11-28T01:45:46.637Z,-2.09
2022-11-28T01:46:51.865Z,-1.99
2022-11-28T01:48:01.088Z,-1.99
2022-11-28T01:49:18.678Z,-1.95
2022-11-28T01:50:24.073Z,-2.02
2022-11-28T01:51:32.127Z,-2.11
2022-11-28T01:52:43.437Z,-2.16
2022-11-28T01:53:51.073Z,-2.08
2022-11-28T01:55:00.912Z,-2.08
2022-11-28T01:56:22.752Z,-2.04
2022-11-28T01:57:33.116Z,-2.05
2022-11-28T01:58:46.428Z,-2.34
2022-11-28T02:00:07.356Z,-2.31
2022-11-28T02:01:25.650Z,-2.27
2022-11-28T02:02:52.270Z,-2.35
2022-11-28T02:03:59.151Z,-2.29
2022-11-28T02:05:02.104Z,-2.25
2022-11-28T02:06:05.861Z,-2.26
2022-11-28T02:07:13.977Z,-2.24
2022-11-28T02:08:21.542Z,-2.32
2022-11-28T02:09:30.638Z,-2.23
2022-11-28T02:11:06.497Z,-2.26
2022-11-28T02:12:25.943Z,-2.22
2022-11-28T02:13:58.225Z,-2.14
2022-11-28T02:15:43.357Z,-2.30
2022-11-28T02:17:07.289Z,-2.52
2022-11-28T02:18:50.702Z,-2.32
2022-11-28T02:20:17.040Z,-2.25
2022-11-28T02:21:46.529Z,-2.40
2022-11-28T02:23:10.793Z,-2.48
2022-11-28T02:24:38.810Z,-2.36
2022-11-28T02:26:16.629Z,-2.46
2022-11-28T02:27:30.978Z,-2.46
2022-11-28T02:29:11.514Z,-2.54
2022-11-28T02:31:17.405Z,-2.41
2022-11-28T02:32:26.842Z,-2.51
2022-11-28T02:33:55.901Z,-2.51
2022-11-28T02:35:27.357Z,-2.48
2022-11-28T02:37:29.066Z,-2.38
2022-11-28T02:39:31.518Z,-2.48
2022-11-28T02:41:16.644Z,-2.43
2022-11-28T02:43:07.338Z,-2.48
2022-11-28T02:44:40.842Z,-2.50
2022-11-28T02:45:57.835Z,-2.44
2022-11-28T02:47:11.504Z,-2.46
2022-11-28T02:48:36.455Z,-2.48
2022-11-28T02:50:32.920Z,-2.46
2022-11-28T02:51:54.031Z,-2.60
2022-11-28T02:53:14.432Z,-2.43
2022-11-28T02:54:32.696Z,-2.45
2022-11-28T02:55:42.539Z,-2.70
2022-11-28T02:56:57.728Z,-2.63
2022-11-28T02:58:03.785Z,-2.51
2022-11-28T02:59:34.505Z,-2.65
2022-11-28T03:00:45.754Z,-2.72
2022-11-28T03:01:51.427Z,-2.66
2022-11-28T03:03:37.047Z,-2.72
2022-11-28T03:05:00.695Z,-2.70
2022-11-28T03:06:35.658Z,-2.69
2022-11-28T03:07:59.180Z,-2.78
2022-11-28T03:09:28.004Z,-2.64
2022-11-28T03:10:54.801Z,-2.58
2022-11-28T03:12:31.984Z,-2.50
2022-11-28T03:13:44.836Z,-2.57
2022-11-28T03:14:59.108Z,-2.49
2022-11-28T03:16:38.032Z,-2.69
2022-11-28T03:18:06.531Z,-2.54
2022-11-28T03:19:34.815Z,-2.54
2022-11-28T03:20:57.534Z,-2.50
2022-11-28T03:22:21.910Z,-2.59
2022-11-28T03:23:39.787Z,-2.70
2022-11-28T03:24:57.435Z,-2.72
2022-11-28T03:26:08.884Z,-2.70
2022-11-28T03:27:36.025Z,-2.65
2022-11-28T03:29:11.551Z,-2.60
2022-11-28T03:30:22.072Z,-2.43
2022-11-28T03:31:37.225Z,-2.61
2022-11-28T03:32:42.951Z,-2.47
2022-11-28T03:33:51.545Z,-2.47
2022-11-28T03:35:13.299Z,-2.46
2022-11-28T03:36:21.651Z,-2.56
2022-11-28T03:37:30.273Z,-2.62
2022-11-28T03:38:40.335Z,-2.63
2022-11-28T03:39:51.466Z,-2.64
2022-11-28T03:41:04.944Z,-2.61
2022-11-28T03:42:19.709Z,-2.75
2022-11-28T03:43:31.006Z,-2.91
2022-11-28T03:44:40.661Z,-2.90
2022-11-28T03:45:45.764Z,-2.85
2022-11-28T03:46:52.117Z,-2.93
2022-11-28T03:48:12.256Z,-3.00
2022-11-28T03:49:22.191Z,-2.89
2022-11-28T03:50:33.583Z,-2.84
2022-11-28T03:51:43.224Z,-2.84
2022-11-28T03:52:51.984Z,-2.77
2022-11-28T03:54:24.043Z,-2.83
2022-11-28T03:55:38.234Z,-2.80
2022-11-28T03:56:51.765Z,-2.80
2022-11-28T03:58:10.875Z,-2.75
2022-11-28T03:59:34.627Z,-2.70
2022-11-28T04:00:50.754Z,-2.75
2022-11-28T04:02:02.925Z,-2.89
2022-11-28T04:03:41.209Z,-2.68
2022-11-28T04:05:01.811Z,-2.61
2022-11-28T04:06:18.374Z,-2.59
2022-11-28T04:07:42.437Z,-2.46
2022-11-28T04:08:55.454Z,-2.54
2022-11-28T04:10:36.528Z,-2.58
2022-11-28T04:11:44.786Z,-2.63
2022-11-28T04:13:14.349Z,-2.76
2022-11-28T04:14:30.795Z,-2.66
2022-11-28T04:15:51.695Z,-2.71
2022-11-28T04:17:10.288Z,-2.63
2022-11-28T04:18:40.475Z,-2.51
2022-11-28T04:20:01.239Z,-2.58
2022-11-28T04:21:17.432Z,-2.58
2022-11-28T04:22:31.199Z,-2.51
2022-11-28T04:23:36.823Z,-2.58
2022-11-28T04:24:46.020Z,-2.48
2022-11-28T04:25:55.920Z,-2.44
2022-11-28T04:27:07.066Z,-2.43
2022-11-28T04:28:17.865Z,-2.38
2022-11-28T04:29:27.880Z,-2.61
2022-11-28T04:30:33.110Z,-2.69
2022-11-28T04:31:39.185Z,-2.53
2022-11-28T04:32:54.365Z,-2.62
2022-11-28T04:34:00.648Z,-2.71
2022-11-28T04:35:11.726Z,-2.58
2022-11-28T04:36:19.202Z,-2.61
2022-11-28T04:37:25.922Z,-2.72
2022-11-28T04:38:33.787Z,-2.88
2022-11-28T04:39:41.027Z,-2.80
2022-11-28T04:41:01.037Z,-2.72
2022-11-28T04:42:19.542Z,-2.68
2022-11-28T04:43:35.627Z,-2.64
2022-11-28T04:44:54.464Z,-2.78
2022-11-28T04:46:09.813Z,-2.68
2022-11-28T04:47:14.274Z,-2.76
2022-11-28T04:48:22.552Z,-2.63
2022-11-28T04:49:28.756Z,-2.68
2022-11-28T04:51:07.734Z,-2.62
2022-11-28T04:52:25.502Z,-2.66
2022-11-28T04:53:44.311Z,-2.61
2022-11-28T04:55:22.592Z,-2.57
2022-11-28T04:56:44.068Z,-2.59
2022-11-28T04:57:57.283Z,-2.54
2022-11-28T04:59:01.035Z,-2.70
2022-11-28T05:00:07.347Z,-2.71
2022-11-28T05:01:16.810Z,-2.70
2022-11-28T05:02:25.896Z,-2.67
2022-11-28T05:03:32.560Z,-2.67
2022-11-28T05:04:40.581Z,-2.63
2022-11-28T05:05:49.866Z,-2.55
2022-11-28T05:07:03.433Z,-2.62
2022-11-28T05:08:10.085Z,-2.52
2022-11-28T05:09:13.782Z,-2.46
2022-11-28T05:10:20.957Z,-2.51
2022-11-28T05:11:24.017Z,-2.43
2022-11-28T05:12:30.193Z,-2.45
2022-11-28T05:13:38.277Z,-2.40
2022-11-28T05:16:01.655Z,-2.34
2022-11-28T05:17:03.865Z,-2.42
2022-11-28T05:18:07.579Z,-2.30
2022-11-28T05:19:10.088Z,-2.27
2022-11-28T05:20:14.078Z,-2.24
2022-11-28T05:21:25.464Z,-2.36
2022-11-28T05:22:29.253Z,-2.26
2022-11-28T05:23:54.332Z,-2.27
2022-11-28T05:25:01.576Z,-2.33
2022-11-28T05:26:13.973Z,-2.35
2022-11-28T05:27:19.417Z,-2.19
2022-11-28T05:28:23.414Z,-2.19
2022-11-28T05:29:26.410Z,-2.31
2022-11-28T05:30:29.592Z,-2.16
2022-11-28T05:31:35.088Z,-2.08
2022-11-28T05:32:38.684Z,-2.05
2022-11-28T05:33:41.258Z,-2.09
2022-11-28T05:34:44.316Z,-2.19
2022-11-28T05:35:48.796Z,-2.18
2022-11-28T05:36:51.474Z,-2.06
2022-11-28T05:37:57.673Z,-2.09
2022-11-28T05:39:04.954Z,-2.10
2022-11-28T05:40:11.852Z,-2.26
2022-11-28T05:41:58.929Z,-2.16
2022-11-28T05:43:06.250Z,-2.11
2022-11-28T05:44:14.761Z,-1.99
2022-11-28T05:45:20.780Z,-2.06
2022-11-28T05:46:46.306Z,-2.13
2022-11-28T05:47:49.499Z,-2.06
2022-11-28T05:48:55.497Z,-1.96
2022-11-28T05:50:03.348Z,-2.25
2022-11-28T05:51:09.336Z,-2.13
2022-11-28T05:52:19.955Z,-2.03
2022-11-28T05:53:40.098Z,-1.93
2022-11-28T05:54:50.742Z,-2.03
2022-11-28T05:55:58.341Z,-1.97
2022-11-28T05:58:34.636Z,-1.99
2022-11-28T05:59:40.146Z,-2.09
2022-11-28T06:00:42.503Z,-2.06
2022-11-28T06:01:45.240Z,-2.14
2022-11-28T06:02:47.841Z,-2.13
2022-11-28T06:03:50.702Z,-2.09
2022-11-28T06:04:53.482Z,-2.04
2022-11-28T06:05:56.478Z,-2.12
2022-11-28T06:06:59.227Z,-2.13
2022-11-28T06:08:01.444Z,-2.04
2022-11-28T06:09:08.063Z,-2.00
2022-11-28T06:10:12.675Z,-1.95
2022-11-28T06:11:18.324Z,-1.86
2022-11-28T06:12:20.737Z,-2.01
2022-11-28T06:13:23.841Z,-2.01
2022-11-28T06:14:26.363Z,-2.01
2022-11-28T06:15:34.943Z,-2.07
2022-11-28T06:16:43.984Z,-2.16
2022-11-28T06:17:49.130Z,-2.13
2022-11-28T06:18:57.117Z,-2.12
2022-11-28T06:19:59.556Z,-2.06
2022-11-28T06:21:03.004Z,-2.18
2022-11-28T06:22:10.284Z,-2.17
2022-11-28T06:23:12.799Z,-2.16
2022-11-28T06:24:14.948Z,-2.13
2022-11-28T06:25:29.454Z,-2.14
2022-11-28T06:26:33.453Z,-2.12
2022-11-28T06:27:37.018Z,-2.13
2022-11-28T06:28:42.755Z,-2.18
2022-11-28T06:29:45.329Z,-2.18
2022-11-28T06:30:50.054Z,-2.18
2022-11-28T06:31:52.440Z,-2.16
2022-11-28T06:32:57.197Z,-2.10
2022-11-28T06:34:00.172Z,-2.29
2022-11-28T06:35:02.912Z,-2.17
2022-11-28T06:36:06.613Z,-2.26
2022-11-28T06:37:10.522Z,-2.14
2022-11-28T06:38:14.612Z,-2.11
2022-11-28T06:39:18.315Z,-2.06
2022-11-28T06:40:20.497Z,-1.94
2022-11-28T06:41:23.487Z,-1.99
2022-11-28T06:42:29.278Z,-2.03
2022-11-28T06:43:40.917Z,-1.94
2022-11-28T06:44:50.179Z,-1.95
2022-11-28T06:45:54.401Z,-2.02
2022-11-28T06:47:01.521Z,-2.09
2022-11-28T06:48:09.644Z,-1.90
2022-11-28T06:49:13.945Z,-2.05
2022-11-28T06:50:20.269Z,-2.05
2022-11-28T06:51:28.106Z,-2.22
2022-11-28T06:53:24.211Z,-2.13
2022-11-28T06:55:08.720Z,-2.17
2022-11-28T06:56:56.015Z,-2.12
2022-11-28T07:00:34.216Z,-2.25
2022-11-28T07:03:37.456Z,-2.39
2022-11-28T07:04:47.403Z,-2.33
2022-11-28T07:08:41.449Z,-2.17
2022-11-28T07:11:40.384Z,-2.37
2022-11-28T07:12:50.155Z,-2.42
2022-11-28T07:14:00.949Z,-2.43
2022-11-28T07:15:26.771Z,-2.49
2022-11-28T07:16:41.127Z,-2.49
2022-11-28T07:18:09.976Z,-2.52
2022-11-28T07:19:23.206Z,-2.54
2022-11-28T07:20:44.258Z,-2.46
2022-11-28T07:23:43.105Z,-2.48
2022-11-28T07:24:53.214Z,-2.54
2022-11-28T07:26:13.659Z,-2.49
2022-11-28T07:28:00.741Z,-2.40
2022-11-28T07:31:52.354Z,-2.35
2022-11-28T07:33:10.792Z,-2.29
2022-11-28T07:34:43.192Z,-2.26
2022-11-28T07:36:17.521Z,-2.28
2022-11-28T07:37:58.216Z,-2.29
2022-11-28T07:39:20.856Z,-2.30
2022-11-28T07:52:13.378Z,-2.27
2022-11-28T07:53:26.217Z,-2.25
2022-11-28T07:54:36.323Z,-2.25
2022-11-28T07:55:46.061Z,-2.22
2022-11-28T07:57:12.801Z,-2.12
2022-11-28T07:58:27.443Z,-2.24
2022-11-28T07:59:36.394Z,-2.32
2022-11-28T08:00:46.501Z,-2.19
2022-11-28T08:01:57.738Z,-2.20
2022-11-28T08:03:03.360Z,-2.28
2022-11-28T08:04:10.947Z,-2.39
2022-11-28T08:05:17.398Z,-2.38
2022-11-28T08:06:29.269Z,-2.34
2022-11-28T08:07:41.254Z,-2.34
2022-11-28T08:08:45.761Z,-2.27
2022-11-28T08:09:58.175Z,-2.29
2022-11-28T08:11:06.339Z,-2.40
2022-11-28T12:40:22.396Z,-2.42
2022-11-28T12:41:57.186Z,-2.51
2022-11-28T12:43:34.090Z,-2.43
2022-11-28T12:44:42.742Z,-2.49
2022-11-28T12:46:12.547Z,-2.53
2022-11-28T12:47:33.151Z,-2.58
2022-11-28T12:49:15.387Z,-2.60
2022-11-28T12:50:44.773Z,-2.60
2022-11-28T12:52:13.445Z,-2.61
2022-11-28T12:54:04.828Z,-2.53
2022-11-28T12:55:25.028Z,-2.56
2022-11-28T12:56:45.257Z,-2.47
2022-11-28T12:58:25.482Z,-2.40
2022-11-28T12:59:53.084Z,-2.46
2022-11-28T13:01:19.655Z,-2.50
2022-11-28T13:02:36.391Z,-2.56
2022-11-28T13:04:31.008Z,-2.53
2022-11-28T13:06:11.871Z,-2.42
2022-11-28T13:07:30.569Z,-2.51
2022-11-28T13:09:03.287Z,-2.44
2022-11-28T13:10:23.684Z,-2.57
2022-11-28T13:12:00.180Z,-2.73
2022-11-28T13:13:25.651Z,-2.62
2022-11-28T13:15:00.210Z,-2.61
2022-11-28T13:16:27.483Z,-2.66
2022-11-28T13:18:00.534Z,-2.75
2022-11-28T13:19:27.273Z,-2.82
2022-11-28T13:20:59.527Z,-2.82
2022-11-28T13:22:16.338Z,-2.79
2022-11-28T13:46:27.705Z,-3.04
2022-11-28T14:02:11.754Z,-3.28
2022-11-28T14:03:22.901Z,-3.23
2022-11-28T14:04:31.458Z,-3.26
2022-11-28T14:05:51.498Z,-3.21
2022-11-28T14:07:14.162Z,-3.10
2022-11-28T14:08:49.997Z,-3.19
2022-11-28T14:10:25.782Z,-3.14
2022-11-28T14:12:13.553Z,-3.20
2022-11-28T14:13:45.494Z,-3.18
2022-11-28T14:15:22.358Z,-3.00
2022-11-28T14:16:51.765Z,-3.01
2022-11-28T14:18:39.224Z,-3.02
2022-11-28T14:19:50.387Z,-3.01
2022-11-28T14:21:06.585Z,-3.03
2022-11-28T14:22:31.265Z,-3.00
2022-11-28T14:23:51.452Z,-3.15
2022-11-28T14:24:54.011Z,-3.12
2022-11-28T14:25:59.839Z,-3.10
2022-11-28T14:27:07.515Z,-3.09
2022-11-28T14:28:40.395Z,-3.02
2022-11-28T14:29:48.230Z,-3.19
2022-11-28T14:30:55.270Z,-3.15
2022-11-28T14:33:42.649Z,-3.06
2022-11-28T14:34:48.417Z,-3.21
2022-11-28T14:35:50.878Z,-3.26
2022-11-28T14:37:22.123Z,-3.25
2022-11-28T14:38:30.485Z,-3.17
2022-11-28T14:39:37.508Z,-3.18
2022-11-28T14:40:57.892Z,-3.18
2022-11-28T14:42:10.067Z,-3.21
2022-11-28T14:43:46.373Z,-3.27
2022-11-28T14:44:53.267Z,-3.27
2022-11-28T14:46:21.877Z,-3.20
2022-11-28T14:47:26.522Z,-3.25
2022-11-28T14:48:30.489Z,-3.15
2022-11-28T14:49:33.808Z,-3.23
2022-11-28T14:50:35.712Z,-3.25
2022-11-28T14:51:47.642Z,-3.32
2022-11-28T14:52:53.125Z,-3.37
2022-11-28T14:53:55.943Z,-3.44
2022-11-28T14:55:13.609Z,-3.31
2022-11-28T14:56:15.835Z,-3.35
2022-11-28T14:57:28.171Z,-3.38
2022-11-28T14:58:30.830Z,-3.30
2022-11-28T14:59:37.687Z,-3.42
2022-11-28T15:00:45.546Z,-3.26
2022-11-28T15:01:57.430Z,-3.23
2022-11-28T15:03:21.889Z,-3.33
2022-11-28T15:04:42.941Z,-3.26
2022-11-28T15:05:56.267Z,-3.27
2022-11-28T15:07:03.504Z,-3.25
2022-11-28T15:08:11.887Z,-3.14
2022-11-28T15:09:26.255Z,-3.05
2022-11-28T15:10:31.078Z,-2.95
2022-11-28T15:11:45.781Z,-3.00
2022-11-28T15:13:09.089Z,-2.99
2022-11-28T15:14:22.655Z,-3.01
2022-11-28T15:15:25.356Z,-2.94
2022-11-28T15:16:30.729Z,-2.84
2022-11-28T15:17:34.172Z,-2.90
2022-11-28T15:18:47.689Z,-2.86
2022-11-28T15:19:50.590Z,-3.00
2022-11-28T15:21:01.589Z,-2.99
2022-11-28T15:22:05.617Z,-3.10
2022-11-28T15:23:30.166Z,-3.02
2022-11-28T15:24:38.557Z,-3.08
2022-11-28T15:25:40.991Z,-3.12
2022-11-28T15:26:46.121Z,-3.18
2022-11-28T15:27:49.019Z,-3.19
2022-11-28T15:29:11.360Z,-3.21
2022-11-28T15:30:26.796Z,-3.10
2022-11-28T15:31:30.526Z,-3.12
2022-11-28T15:32:35.102Z,-3.27
2022-11-28T15:33:39.816Z,-3.23
2022-11-28T15:34:42.616Z,-3.24
2022-11-28T15:36:12.057Z,-3.26
2022-11-28T15:37:19.277Z,-3.28
2022-11-28T15:38:21.613Z,-3.17
2022-11-28T15:39:36.037Z,-3.29
2022-11-28T15:40:38.285Z,-3.31
2022-11-28T15:41:40.533Z,-3.25
2022-11-28T15:42:45.277Z,-3.19
2022-11-28T15:43:47.795Z,-3.28
2022-11-28T15:45:20.942Z,-3.30
2022-11-28T15:46:43.282Z,-3.29
2022-11-28T15:47:46.844Z,-3.33
2022-11-28T15:48:53.873Z,-3.32
2022-11-28T15:50:23.011Z,-3.26
2022-11-28T15:51:34.084Z,-3.19
2022-11-28T15:52:36.174Z,-3.20
2022-11-28T15:53:42.496Z,-3.23
2022-11-28T15:54:45.259Z,-3.23
2022-11-28T15:56:09.334Z,-3.17
2022-11-28T15:57:27.216Z,-3.35
2022-11-28T15:58:29.609Z,-3.23
2022-11-28T15:59:32.226Z,-3.32
2022-11-28T16:00:41.680Z,-3.27
2022-11-28T16:01:43.976Z,-3.27
2022-11-28T16:02:50.072Z,-3.30
2022-11-28T16:04:13.653Z,-3.19
2022-11-28T16:05:21.393Z,-3.25
2022-11-28T16:06:27.107Z,-3.32
2022-11-28T16:07:29.340Z,-3.31
2022-11-28T16:08:40.531Z,-3.29
2022-11-28T16:09:55.335Z,-3.39
2022-11-28T16:11:00.152Z,-3.39
2022-11-28T16:12:04.578Z,-3.38
2022-11-28T16:13:14.435Z,-3.33
2022-11-28T16:14:31.217Z,-3.26
2022-11-28T16:15:34.847Z,-3.25
2022-11-28T16:16:40.308Z,-3.18
2022-11-28T16:17:46.285Z,-3.17
2022-11-28T16:18:57.222Z,-3.24
2022-11-28T16:20:05.065Z,-3.31
2022-11-28T16:21:13.678Z,-3.20
2022-11-28T16:22:20.638Z,-3.26
2022-11-28T16:23:32.626Z,-3.16
2022-11-28T16:24:55.679Z,-3.17
2022-11-28T16:26:29.575Z,-3.14
2022-11-28T16:27:40.074Z,-3.05
2022-11-28T16:28:42.129Z,-3.00
2022-11-28T16:29:46.807Z,-3.05
2022-11-28T16:30:51.303Z,-3.06
2022-11-28T16:31:53.844Z,-3.13
2022-11-28T16:32:57.061Z,-3.10
2022-11-28T16:33:59.891Z,-3.12
2022-11-28T16:35:04.074Z,-3.14
2022-11-28T16:36:32.199Z,-2.98
2022-11-28T16:37:34.302Z,-2.92
2022-11-28T16:38:37.449Z,-2.99
2022-11-28T16:39:39.652Z,-2.98
2022-11-28T16:40:43.816Z,-3.03
2022-11-28T16:42:14.379Z,-3.01
2022-11-28T16:43:39.588Z,-3.00
2022-11-28T16:44:41.722Z,-2.96
2022-11-28T16:45:46.511Z,-3.03
2022-11-28T16:46:55.250Z,-3.07
2022-11-28T16:48:13.006Z,-3.05
2022-11-28T16:49:44.922Z,-3.08
2022-11-28T16:51:16.410Z,-3.03
2022-11-28T16:52:27.637Z,-2.96
2022-11-28T16:53:50.385Z,-3.00
2022-11-28T16:54:56.679Z,-3.03
2022-11-28T16:56:00.905Z,-3.05
2022-11-28T16:57:15.169Z,-3.03
2022-11-28T16:58:21.191Z,-3.20
2022-11-28T16:59:26.004Z,-3.07
2022-11-28T17:00:28.219Z,-2.88
2022-11-28T17:01:31.110Z,-3.01
2022-11-28T17:02:33.676Z,-3.01
2022-11-28T17:03:50.773Z,-3.03
2022-11-28T17:04:53.945Z,-2.97
2022-11-28T17:05:55.905Z,-2.89
2022-11-28T17:07:05.279Z,-2.94
2022-11-28T17:08:08.518Z,-2.81
2022-11-28T17:09:22.377Z,-2.83
2022-11-28T17:10:30.236Z,-2.91
2022-11-28T17:11:36.709Z,-2.84
2022-11-28T17:12:39.410Z,-3.02
2022-11-28T17:13:43.101Z,-2.96
2022-11-28T17:14:45.047Z,-3.05
2022-11-28T17:15:47.094Z,-3.06
2022-11-28T17:16:49.417Z,-2.91
2022-11-28T17:17:51.854Z,-3.00
2022-11-28T17:18:54.187Z,-3.02
2022-11-28T17:19:56.429Z,-2.92
2022-11-28T17:20:59.845Z,-2.89
2022-11-28T17:22:03.397Z,-2.89
2022-11-28T17:23:05.585Z,-2.77
2022-11-28T17:24:29.509Z,-2.93
2022-11-28T17:25:31.595Z,-2.90
2022-11-28T17:26:33.926Z,-2.94
2022-11-28T17:27:40.158Z,-2.98
2022-11-28T17:28:42.276Z,-2.92
2022-11-28T17:29:45.531Z,-3.06
2022-11-28T17:30:47.971Z,-3.03
2022-11-28T17:31:50.526Z,-3.00
2022-11-28T17:32:56.405Z,-3.05
2022-11-28T17:33:59.144Z,-3.04
2022-11-28T17:35:04.476Z,-3.01
2022-11-28T17:36:13.211Z,-3.00
2022-11-28T17:37:17.072Z,-2.94
2022-11-28T17:38:24.622Z,-2.98
2022-11-28T17:39:31.971Z,-2.95
2022-11-28T17:40:37.982Z,-2.99
2022-11-28T17:41:42.085Z,-3.05
2022-11-28T17:42:44.330Z,-2.98
2022-11-28T17:43:46.728Z,-3.00
2022-11-28T17:44:50.132Z,-2.99
2022-11-28T17:45:56.962Z,-3.03
2022-11-28T17:47:03.899Z,-3.20
2022-11-28T17:48:08.303Z,-2.93
2022-11-28T17:49:18.211Z,-2.96
2022-11-28T17:50:28.193Z,-2.94
2022-11-28T17:51:30.861Z,-2.91
2022-11-28T17:52:34.653Z,-2.97
2022-11-28T17:53:37.830Z,-3.09
2022-11-28T17:54:48.822Z,-2.96
2022-11-28T17:55:59.563Z,-2.95
2022-11-28T17:57:04.399Z,-2.91
2022-11-28T17:58:07.395Z,-2.88
2022-11-28T17:59:16.219Z,-2.87
2022-11-28T18:00:20.420Z,-2.86
2022-11-28T18:01:32.124Z,-2.84
2022-11-28T18:02:37.439Z,-2.74
2022-11-28T18:03:40.570Z,-2.75
2022-11-28T18:04:43.573Z,-2.76
2022-11-28T18:05:51.012Z,-2.75
2022-11-28T18:06:54.242Z,-2.75
2022-11-28T18:07:59.922Z,-2.72
2022-11-28T18:09:11.435Z,-2.72
2022-11-28T18:10:14.574Z,-2.80
2022-11-28T18:11:20.028Z,-2.70
2022-11-28T18:12:24.490Z,-2.76
2022-11-28T18:13:28.411Z,-2.81
2022-11-28T18:14:36.594Z,-2.77
2022-11-28T18:15:43.979Z,-2.87
2022-11-28T18:16:49.233Z,-2.79
2022-11-28T18:17:52.741Z,-2.77
2022-11-28T18:18:56.010Z,-2.76
2022-11-28T18:19:59.824Z,-2.79
2022-11-28T18:21:07.530Z,-2.88
2022-11-28T18:22:12.350Z,-2.74
2022-11-28T18:23:19.343Z,-2.68
2022-11-28T18:24:27.097Z,-2.91
2022-11-28T18:25:33.964Z,-2.91
2022-11-28T18:26:52.223Z,-2.92
2022-11-28T18:28:01.851Z,-2.83
2022-11-28T18:34:42.140Z,-2.94
2022-11-28T18:48:52.081Z,-3.08
2022-11-28T18:50:08.349Z,-2.98
2022-11-28T18:55:33.140Z,-2.83
2022-11-28T18:56:57.326Z,-2.97
2022-11-28T19:00:32.863Z,-3.12
2022-11-28T19:01:36.136Z,-3.07
2022-11-28T19:03:07.381Z,-3.05
2022-11-28T19:04:19.169Z,-3.00
2022-11-28T19:05:43.651Z,-2.99
2022-11-28T19:07:16.250Z,-3.08
2022-11-28T20:18:19.792Z,-3.03
2022-11-28T20:22:03.334Z,-2.97
2022-11-28T20:34:13.668Z,-3.10
2022-11-28T20:42:46.711Z,-2.78
2022-11-28T20:58:49.411Z,-2.93
